Bridel, Luxembourg
Current Conditions -  °F | °C
As of 9:20 PM on Friday 28 Nov 2014 (Local Time) from ELLX Reporting Station
Few Clouds Few Clouds  
Wind Chill: 30°   Ceiling: Unl
Heat Index: 36°   Visibility: 2.5mi
Dew Point: 34°   Wind: 7mph
Humidity: 93%   Direction: 70°ENE
Pressure: 29.83"   Gusts: NA
Location:  49.66°N, 6.08°E
Report Text: ELLX 282020Z 07006KT 010V170 4000 FEW005 02/01 Q1010 BECMG 1500 BR BKN004
Loading
Personal Weather Stations






























Interactive Weather Map New forecast layout! Learn more

10-Day Weather Forecast

Advertisements
Track Severe Weather on mobile